Terminal Aerodrome Forecast
Issued by NWS

Home | Current Version | Previous Version | Graphics & Text | Print | Product List | Glossary Off
Versions: 1 2 3 4 5 6 7 8 9 10 11 12 13 14 15 16 17 18 19 20

039
FTUS43 KBIS 230621 AAA
TAFDIK
TAF AMD
KDIK 230621Z 2306/2406 28020G32KT P6SM VCSH BKN080 WS020/29045KT
     FM230900 29024G36KT P6SM SCT060 BKN120
     FM231500 31028G39KT P6SM SCT080 WS020/31035KT
     FM240200 32016G21KT P6SM SKC WS020/33035KT=

USA.gov is the U.S. government's official web portal to all federal, state and local government web resources and services.